Time;durP1;ratioP1;P1;durP2;ratioP2;P2;SDS_P1;SDS_P2;PMS_P1;PMS_P2;Temp;Humidity;BMP_temperature;BMP_pressure;BME280_temperature;BME280_humidity;BME280_pressure;Samples;Min_cycle;Max_cycle;Signal;HPM_P1;HPM_P2
2022/12/29 00:01:38;;;;;;;20.57;13.60;;;;;;;2.36;85.90;100383.20;1749522;80;21013;-80
2022/12/29 00:04:07;;;;;;;15.95;11.35;;;;;;;2.37;86.00;100378.22;1791930;79;21023;-83
2022/12/29 00:06:35;;;;;;;20.02;12.47;;;;;;;2.36;85.94;100382.70;1765090;79;20963;-84
2022/12/29 00:09:02;;;;;;;21.23;12.82;;;;;;;2.40;85.91;100383.19;1777166;79;20977;-83
2022/12/29 00:11:29;;;;;;;16.52;12.73;;;;;;;2.40;85.91;100378.67;1782786;80;21285;-81
2022/12/29 00:16:42;;;;;;;20.82;12.23;;;;;;;2.41;85.75;100383.48;1784971;79;21143;-80
2022/12/29 00:35:07;;;;;;;15.78;12.07;;;;;;;2.39;85.73;100377.55;1791094;79;21004;-82
2022/12/29 00:35:29;;;;;;;20.40;13.10;;;;;;;2.46;85.36;100387.25;1775047;80;20984;-85
2022/12/29 00:46:13;;;;;;;19.98;11.35;;;;;;;2.40;84.93;100364.61;1751193;81;21042;-82
2022/12/29 00:51:11;;;;;;;18.90;11.20;;;;;;;2.44;84.87;100351.29;1762554;80;21023;-77
2022/12/29 00:53:37;;;;;;;16.65;12.00;;;;;;;2.47;84.71;100349.09;1746642;81;21023;-80
2022/12/29 00:56:06;;;;;;;17.50;12.15;;;;;;;2.48;84.46;100357.38;1689277;84;20979;-81
2022/12/29 00:58:33;;;;;;;17.70;12.15;;;;;;;2.50;84.28;100345.23;1680531;83;21025;-81
2022/12/29 01:01:05;;;;;;;13.08;11.03;;;;;;;2.50;84.07;100343.41;1717645;83;21019;-80
2022/12/29 01:03:36;;;;;;;16.93;9.95;;;;;;;2.50;83.92;100350.05;1709448;83;20897;-80
2022/12/29 01:06:07;;;;;;;17.57;11.18;;;;;;;2.50;83.86;100348.72;1708790;82;22282;-78
2022/12/29 01:08:33;;;;;;;15.45;10.48;;;;;;;2.50;83.59;100337.27;1707802;83;21186;-81
2022/12/29 01:11:08;;;;;;;14.13;10.70;;;;;;;2.51;83.55;100332.28;1689136;85;21084;-79
2022/12/29 01:13:37;;;;;;;16.87;9.73;;;;;;;2.52;83.37;100337.42;1692389;83;20951;-77
2022/12/29 01:16:06;;;;;;;15.95;9.95;;;;;;;2.52;83.20;100329.46;1692704;83;21723;-79
2022/12/29 01:18:32;;;;;;;14.15;10.38;;;;;;;2.53;83.03;100326.30;1709015;83;21553;-78
2022/12/29 01:21:01;;;;;;;13.80;11.28;;;;;;;2.54;82.84;100322.65;1683574;82;21892;-80
2022/12/29 01:23:28;;;;;;;13.30;9.18;;;;;;;2.55;82.70;100315.81;1701391;83;21015;-80
2022/12/29 01:25:55;;;;;;;11.10;8.55;;;;;;;2.55;82.43;100316.31;1711139;83;22287;-78
2022/12/29 01:28:22;;;;;;;15.28;10.38;;;;;;;2.54;82.22;100310.70;1762548;80;21497;-80
2022/12/29 01:30:48;;;;;;;17.67;10.82;;;;;;;2.55;81.95;100320.30;1730667;80;22360;-80
2022/12/29 01:33:16;;;;;;;12.10;8.75;;;;;;;2.56;81.93;100313.98;1723526;81;20895;-80
2022/12/29 01:35:43;;;;;;;11.25;9.05;;;;;;;2.56;81.71;100306.02;1724153;80;20937;-81
2022/12/29 01:38:09;;;;;;;14.40;9.40;;;;;;;2.57;81.54;100300.53;1731767;80;20939;-78
2022/12/29 01:40:45;;;;;;;10.95;8.15;;;;;;;2.56;81.36;100301.53;1743384;81;21014;-79
2022/12/29 01:43:14;;;;;;;11.00;7.67;;;;;;;2.56;81.12;100296.22;1741980;81;21478;-81
2022/12/29 01:45:46;;;;;;;12.47;9.38;;;;;;;2.57;80.83;100291.73;1753750;81;21067;-76
2022/12/29 01:48:13;;;;;;;;;;;;;;;2.56;80.69;100294.89;1730492;81;21597;-81
2022/12/29 01:50:44;;;;;;;14.60;7.80;;;;;;;2.57;80.52;100294.39;1739803;80;20154;-82
2022/12/29 01:53:15;;;;;;;15.05;8.98;;;;;;;2.58;80.34;100296.05;1731427;80;20894;-76
2022/12/29 01:55:49;;;;;;;10.93;8.18;;;;;;;2.59;80.08;100291.86;1749606;80;21561;-77
2022/12/29 01:58:16;;;;;;;13.48;9.30;;;;;;;2.60;79.71;100290.86;1729868;80;21365;-77
2022/12/29 02:00:44;;;;;;;16.27;9.28;;;;;;;2.63;79.49;100285.70;1727915;80;21117;-76
2022/12/29 02:03:12;;;;;;;12.75;7.97;;;;;;;2.64;78.83;100276.70;1747014;81;21033;-78
2022/12/29 02:05:49;;;;;;;9.30;7.70;;;;;;;2.66;78.77;100265.91;1737191;80;20988;-76
2022/12/29 02:08:17;;;;;;;9.85;7.22;;;;;;;2.68;78.42;100274.03;1731289;80;21033;-76
2022/12/29 02:10:44;;;;;;;11.10;7.70;;;;;;;2.68;78.18;100271.37;1756199;81;21226;-76
2022/12/29 02:13:10;;;;;;;12.85;8.13;;;;;;;2.71;78.08;100280.78;1697584;83;20932;-77
2022/12/29 02:16:02;;;;;;;11.10;7.60;;;;;;;2.72;77.92;100270.48;1709647;82;21510;-79
2022/12/29 02:18:37;;;;;;;9.75;6.45;;;;;;;2.75;77.77;100274.92;1690811;83;21067;-78
2022/12/29 02:21:42;;;;;;;14.73;7.25;;;;;;;2.74;77.17;100273.77;1705160;83;21020;-79
2022/12/29 02:24:34;;;;;;;8.38;6.55;;;;;;;2.74;77.17;100276.42;1709290;83;21129;-79
2022/12/29 02:27:16;;;;;;;7.50;6.13;;;;;;;2.74;76.79;100282.56;1693556;83;21527;-81
2022/12/29 02:30:04;;;;;;;10.05;6.92;;;;;;;2.76;76.60;100282.38;1700109;83;21051;-81
2022/12/29 02:32:45;;;;;;;8.78;7.10;;;;;;;2.76;76.39;100272.59;1695380;83;20984;-82
2022/12/29 02:35:50;;;;;;;7.53;6.45;;;;;;;2.79;76.16;100263.41;1690958;82;21441;-81
2022/12/29 02:38:54;;;;;;;8.98;6.55;;;;;;;2.81;75.84;100258.25;1613495;87;21096;-77
2022/12/29 02:41:32;;;;;;;10.55;7.70;;;;;;;2.78;75.43;100259.13;1702774;83;21061;-79
2022/12/29 02:44:41;;;;;;;8.53;6.45;;;;;;;2.76;75.32;100268.61;1701691;83;21059;-79
2022/12/29 02:47:30;;;;;;;8.53;6.67;;;;;;;2.75;75.17;100260.31;1686632;83;21094;-79
2022/12/29 02:50:29;;;;;;;9.30;6.72;;;;;;;2.75;75.20;100245.70;1689195;83;21044;-79
2022/12/29 02:52:59;;;;;;;10.78;7.83;;;;;;;2.77;75.00;100257.48;1705811;83;21254;-78
2022/12/29 02:55:26;;;;;;;8.93;6.25;;;;;;;2.73;74.81;100238.95;1720987;82;21577;-79
2022/12/29 02:58:10;;;;;;;7.30;6.60;;;;;;;2.73;74.76;100244.26;1688983;83;20968;-79
2022/12/29 03:00:41;;;;;;;8.28;6.78;;;;;;;2.74;74.67;100233.92;1690221;83;21663;-77
2022/12/29 03:03:25;;;;;;;9.05;7.12;;;;;;;2.74;74.61;100247.20;1706625;83;21083;-80
2022/12/29 03:06:09;;;;;;;8.30;6.25;;;;;;;2.72;74.45;100233.31;1697727;83;21109;-79
2022/12/29 03:09:00;;;;;;;9.65;7.33;;;;;;;2.71;74.38;100229.00;1698000;83;20948;-79
2022/12/29 03:17:27;;;;;;;10.48;6.70;;;;;;;2.63;74.63;100216.66;1717253;83;21013;-78
2022/12/29 03:19:59;;;;;;;9.40;6.62;;;;;;;2.60;74.62;100207.22;1691461;83;21107;-77
2022/12/29 03:22:33;;;;;;;8.53;6.37;;;;;;;2.60;74.79;100209.05;1714073;83;21011;-79
2022/12/29 03:25:23;;;;;;;;;;;;;;;2.58;74.73;100210.58;1707001;83;21044;-79
2022/12/29 03:28:03;;;;;;;10.70;8.05;;;;;;;2.56;74.93;100209.11;1705999;83;20166;-79
2022/12/29 03:30:31;;;;;;;8.83;7.00;;;;;;;2.48;75.22;100214.02;1667869;83;21087;-78
2022/12/29 03:33:01;;;;;;;7.83;5.20;;;;;;;2.46;75.47;100209.89;1695345;83;21143;-75
2022/12/29 03:35:34;;;;;;;7.80;6.95;;;;;;;2.46;75.54;100212.55;1704259;83;22164;-79
2022/12/29 03:38:26;;;;;;;10.78;6.90;;;;;;;2.46;75.58;100209.89;1696048;83;20885;-80
2022/12/29 03:40:57;;;;;;;8.65;6.37;;;;;;;2.45;75.67;100210.89;1715277;82;21044;-77
2022/12/29 03:43:23;;;;;;;9.98;7.12;;;;;;;2.44;75.82;100207.95;1693186;83;22168;-77
2022/12/29 03:45:50;;;;;;;12.33;8.15;;;;;;;2.38;75.90;100210.83;1695486;82;21517;-79
2022/12/29 03:48:17;;;;;;;8.05;7.20;;;;;;;2.36;76.05;100207.52;1708154;83;21588;-77
2022/12/29 03:50:44;;;;;;;16.10;9.25;;;;;;;2.35;76.19;100214.36;1704794;83;21029;-79
2022/12/29 03:53:10;;;;;;;9.93;7.60;;;;;;;2.35;76.30;100222.32;1676809;83;20977;-78
2022/12/29 03:55:38;;;;;;;13.65;7.17;;;;;;;2.34;76.31;100220.67;1687452;83;21107;-78
2022/12/29 03:58:05;;;;;;;9.30;7.20;;;;;;;2.31;76.44;100219.19;1713844;83;21226;-79
2022/12/29 04:00:37;;;;;;;7.58;6.75;;;;;;;2.31;76.45;100218.36;1685315;83;21564;-79
2022/12/29 04:03:04;;;;;;;13.08;8.20;;;;;;;2.26;76.59;100218.91;1706950;83;21651;-80
2022/12/29 04:05:31;;;;;;;9.33;7.25;;;;;;;2.23;76.75;100221.94;1718070;83;21561;-80
2022/12/29 04:07:57;;;;;;;8.13;7.10;;;;;;;2.23;76.84;100214.48;1709585;83;21509;-80
2022/12/29 04:10:24;;;;;;;9.88;7.28;;;;;;;2.23;76.94;100209.17;1713194;83;21894;-78
2022/12/29 04:12:52;;;;;;;9.15;7.08;;;;;;;2.24;77.00;100200.22;1703767;83;21092;-78
2022/12/29 04:15:19;;;;;;;7.90;7.00;;;;;;;2.24;77.06;100194.91;1691658;83;20975;-77
2022/12/29 04:17:46;;;;;;;8.80;6.80;;;;;;;2.25;77.11;100197.89;1714343;83;21032;-76
2022/12/29 04:23:03;;;;;;;15.78;10.18;;;;;;;2.21;77.20;100202.72;1674938;83;21297;-76
2022/12/29 04:25:31;;;;;;;12.88;8.00;;;;;;;2.18;77.35;100200.44;1693235;83;21028;-77
2022/12/29 04:27:59;;;;;;;12.90;9.00;;;;;;;2.15;77.42;100196.34;1713906;83;21020;-78
2022/12/29 04:30:46;;;;;;;10.03;8.20;;;;;;;2.15;77.59;100198.16;1709220;83;21079;-77
2022/12/29 04:33:24;;;;;;;14.63;10.20;;;;;;;2.14;77.63;100193.36;1719022;83;21004;-77
2022/12/29 04:35:52;;;;;;;13.45;9.65;;;;;;;2.12;77.76;100192.70;1695788;83;21430;-78
2022/12/29 04:38:18;;;;;;;14.30;9.30;;;;;;;2.13;77.82;100194.35;1712793;83;21063;-77
2022/12/29 04:40:46;;;;;;;8.00;7.20;;;;;;;2.15;77.92;100199.48;1710238;83;21026;-78
2022/12/29 04:43:13;;;;;;;10.08;7.40;;;;;;;2.17;77.92;100190.33;1685459;84;21091;-76
2022/12/29 04:45:46;;;;;;;8.60;7.65;;;;;;;2.16;77.87;100199.78;1709393;83;21105;-76
2022/12/29 04:48:17;;;;;;;16.57;9.03;;;;;;;2.16;77.84;100185.19;1698070;83;21261;-77
2022/12/29 04:50:48;;;;;;;15.80;8.58;;;;;;;2.15;77.86;100184.89;1700443;83;20908;-76
2022/12/29 04:53:17;;;;;;;10.20;7.25;;;;;;;2.12;77.90;100183.92;1701335;83;21083;-79
2022/12/29 04:55:44;;;;;;;12.60;9.50;;;;;;;2.11;78.02;100188.92;1697064;83;21043;-81
2022/12/29 04:58:11;;;;;;;12.90;9.08;;;;;;;2.11;78.07;100187.60;1694664;83;21082;-78
2022/12/29 05:00:37;;;;;;;11.68;9.20;;;;;;;2.11;78.15;100177.78;1699824;84;21126;-77
2022/12/29 05:03:04;;;;;;;12.15;8.68;;;;;;;2.12;78.13;100185.24;1697240;84;21035;-76
2022/12/29 05:05:32;;;;;;;14.58;7.85;;;;;;;2.12;78.09;100185.24;1657556;85;21070;-81
2022/12/29 05:07:59;;;;;;;12.73;8.60;;;;;;;2.12;78.13;100180.77;1689177;83;20964;-78
2022/12/29 05:10:27;;;;;;;12.95;9.00;;;;;;;2.08;78.09;100188.77;1680649;83;21000;-78
2022/12/29 05:12:56;;;;;;;10.03;7.80;;;;;;;2.08;78.13;100182.64;1703213;84;21843;-79
2022/12/29 05:15:23;;;;;;;11.97;7.80;;;;;;;2.05;78.17;100188.33;1671669;84;21043;-82
2022/12/29 05:17:50;;;;;;;13.25;8.78;;;;;;;2.02;78.24;100188.66;1654504;85;20912;-80
2022/12/29 05:20:17;;;;;;;12.30;8.35;;;;;;;1.95;78.42;100180.63;1670266;84;21087;-82
2022/12/29 05:22:44;;;;;;;13.78;9.33;;;;;;;1.95;78.60;100175.33;1670310;84;21072;-79
2022/12/29 05:25:10;;;;;;;14.03;8.50;;;;;;;1.91;78.63;100163.94;1727267;83;21092;-82
2022/12/29 05:27:41;;;;;;;12.00;8.55;;;;;;;1.91;78.75;100174.55;1722235;81;20978;-82
2022/12/29 09:53:37;;;;;;;25.80;16.43;;;;;;;3.50;75.58;100103.84;1792034;79;37809;-76
2022/12/29 09:56:05;;;;;;;24.30;14.38;;;;;;;3.56;75.34;100110.23;1752288;81;21007;-76
2022/12/29 09:58:49;;;;;;;17.90;13.30;;;;;;;3.67;74.81;100109.70;1749294;81;21863;-77
2022/12/29 10:01:26;;;;;;;23.70;14.28;;;;;;;3.77;74.06;100105.36;1731849;82;21053;-76
2022/12/29 10:03:55;;;;;;;20.15;14.15;;;;;;;3.84;73.92;100097.72;1731861;82;20951;-76
2022/12/29 10:06:39;;;;;;;22.95;13.38;;;;;;;3.89;73.62;100099.79;1731807;81;20998;-76
2022/12/29 10:09:34;;;;;;;22.07;14.30;;;;;;;3.94;73.08;100094.70;1732681;82;21545;-77
2022/12/29 10:12:12;;;;;;;22.05;14.07;;;;;;;3.94;73.08;100094.70;1732229;82;21271;-79
2022/12/29 10:15:03;;;;;;;22.35;15.45;;;;;;;3.97;72.97;100085.52;1732151;82;21266;-77
2022/12/29 10:18:02;;;;;;;26.00;14.87;;;;;;;4.06;72.71;100085.16;1731807;82;21356;-79
2022/12/29 10:20:44;;;;;;;20.27;13.00;;;;;;;4.06;72.71;100085.16;1729578;82;21034;-79
2022/12/29 10:23:23;;;;;;;19.37;12.65;;;;;;;4.09;72.50;100076.77;1723321;82;21055;-75
2022/12/29 10:25:50;;;;;;;19.12;14.45;;;;;;;4.15;72.22;100073.31;1731228;81;21565;-78
2022/12/29 10:28:39;;;;;;;23.73;14.83;;;;;;;4.16;71.71;100062.98;1688879;82;21593;-76
2022/12/29 10:31:10;;;;;;;19.55;13.53;;;;;;;4.17;71.56;100049.17;1731377;82;21594;-74
2022/12/29 10:33:40;;;;;;;19.92;13.22;;;;;;;4.16;71.68;100057.66;1724384;82;21129;-76
2022/12/29 10:36:27;;;;;;;21.42;14.23;;;;;;;4.15;71.63;100054.69;1724669;82;21560;-79
2022/12/29 10:39:19;;;;;;;33.25;14.28;;;;;;;4.16;71.77;100061.66;1720255;82;21532;-75
2022/12/29 10:41:57;;;;;;;18.27;13.88;;;;;;;4.17;71.61;100054.50;1719148;81;20958;-79
2022/12/29 10:44:24;;;;;;;16.27;11.90;;;;;;;4.17;71.89;100047.84;1754016;81;20994;-79
2022/12/29 10:47:00;;;;;;;17.73;12.65;;;;;;;4.21;71.87;100053.07;1732567;82;20975;-83
2022/12/29 10:49:27;;;;;;;17.67;12.05;;;;;;;4.23;71.98;100051.02;1760221;81;21058;-79
2022/12/29 10:51:57;;;;;;;21.05;14.35;;;;;;;4.24;71.65;100056.14;1762912;81;21052;-85
2022/12/29 10:54:34;;;;;;;15.93;12.13;;;;;;;4.22;71.58;100048.86;1733060;81;20987;-79
2022/12/29 10:57:05;;;;;;;22.05;12.85;;;;;;;4.20;71.42;100054.91;1761662;81;20983;-79
2022/12/29 10:59:35;;;;;;;24.92;12.60;;;;;;;4.18;71.55;100062.26;1728184;83;20967;-81
2022/12/29 11:02:22;;;;;;;18.70;12.13;;;;;;;4.10;71.49;100062.44;1652021;84;21135;-78
2022/12/29 11:05:02;;;;;;;18.37;12.18;;;;;;;4.06;71.91;100057.72;1681582;84;21426;-78
2022/12/29 11:07:29;;;;;;;19.92;13.10;;;;;;;3.99;72.02;100048.36;1697860;84;21003;-78
2022/12/29 11:10:20;;;;;;;24.60;13.18;;;;;;;3.94;72.46;100049.47;1685204;83;21116;-77
2022/12/29 11:13:05;;;;;;;16.80;13.18;;;;;;;3.94;72.67;100058.78;1674023;84;21122;-81
2022/12/29 11:15:49;;;;;;;20.95;13.58;;;;;;;3.91;72.74;100046.70;1664131;84;21160;-82
2022/12/29 11:18:22;;;;;;;19.77;12.35;;;;;;;3.85;72.87;100035.52;1697549;84;22026;-81
2022/12/29 11:21:02;;;;;;;18.55;14.50;;;;;;;3.85;73.06;100032.86;1709579;83;21542;-76
2022/12/29 11:23:33;;;;;;;19.35;14.05;;;;;;;3.84;73.21;100035.70;1711504;83;21006;-78
2022/12/29 11:26:16;;;;;;;20.37;15.93;;;;;;;3.81;73.38;100034.27;1706937;83;21109;-74
2022/12/29 11:28:46;;;;;;;19.45;14.70;;;;;;;3.79;73.58;100027.52;1710950;83;21059;-78
2022/12/29 11:31:18;;;;;;;30.23;16.85;;;;;;;3.82;73.76;100040.42;1707520;83;21133;-78
2022/12/29 11:33:44;;;;;;;21.60;13.85;;;;;;;3.80;73.90;100039.78;1683593;83;21074;-83
2022/12/29 11:36:19;;;;;;;21.20;14.87;;;;;;;3.79;74.06;100037.63;1710415;83;21034;-81
2022/12/29 11:38:50;;;;;;;24.50;13.38;;;;;;;3.80;74.15;100033.95;1683614;83;21542;-73
2022/12/29 11:41:28;;;;;;;19.42;13.98;;;;;;;3.81;74.08;100032.94;1689522;83;21015;-76
2022/12/29 11:43:58;;;;;;;19.50;14.10;;;;;;;3.84;74.10;100037.03;1697384;83;21150;-75
2022/12/29 11:46:31;;;;;;;20.05;13.78;;;;;;;3.81;74.12;100039.59;1681693;85;21651;-78
2022/12/29 11:48:59;;;;;;;24.15;17.42;;;;;;;3.83;74.26;100051.38;1681763;85;21112;-74
2022/12/29 11:51:29;;;;;;;19.02;13.90;;;;;;;3.82;74.28;100054.55;1681070;83;20979;-76
2022/12/29 11:53:58;;;;;;;19.98;12.60;;;;;;;3.83;74.20;100051.38;1703744;83;21489;-74
2022/12/29 11:56:37;;;;;;;23.60;13.48;;;;;;;3.80;74.22;100061.89;1681633;85;20995;-75
2022/12/29 11:59:41;;;;;;;19.35;12.33;;;;;;;3.79;74.39;100067.42;1687339;83;21157;-72
2022/12/29 12:02:45;;;;;;;19.50;13.40;;;;;;;3.80;74.42;100070.38;1706601;83;21054;-76
2022/12/29 12:05:24;;;;;;;18.60;14.78;;;;;;;3.78;74.37;100057.80;1695964;83;21106;-73
2022/12/29 12:08:17;;;;;;;17.15;13.53;;;;;;;3.79;74.61;100058.11;1708969;83;21054;-72
2022/12/29 12:11:06;;;;;;;17.10;13.18;;;;;;;3.81;74.68;100060.05;1665812;83;21593;-71
2022/12/29 12:14:02;;;;;;;18.32;12.37;;;;;;;3.83;74.61;100063.35;1710478;83;21110;-74
2022/12/29 12:16:43;;;;;;;17.82;13.43;;;;;;;3.85;74.56;100067.44;1700693;83;20991;-73
2022/12/29 12:19:31;;;;;;;16.82;12.35;;;;;;;3.85;74.43;100057.30;1692025;84;21549;-72
2022/12/29 12:22:10;;;;;;;14.33;11.75;;;;;;;3.82;74.38;100058.53;1667733;84;21024;-75
2022/12/29 12:25:02;;;;;;;17.85;12.18;;;;;;;3.82;74.56;100070.51;1693775;83;21138;-75
2022/12/29 12:27:55;;;;;;;18.70;13.47;;;;;;;3.83;74.62;100060.69;1723610;83;21043;-74
2022/12/29 12:30:25;;;;;;;17.05;13.32;;;;;;;3.83;74.68;100064.17;1706803;83;21860;-75
2022/12/29 12:33:02;;;;;;;15.65;11.22;;;;;;;3.84;74.65;100062.31;1723378;82;21531;-75
2022/12/29 12:35:41;;;;;;;17.70;13.18;;;;;;;3.84;74.83;100066.30;1693731;84;21109;-80
2022/12/29 12:38:31;;;;;;;16.62;11.95;;;;;;;3.86;74.84;100066.43;1693701;84;21545;-78
2022/12/29 12:41:41;;;;;;;16.20;11.97;;;;;;;3.89;74.82;100067.36;1693435;84;21107;-80
2022/12/29 12:44:37;;;;;;;16.65;13.05;;;;;;;3.91;74.63;100068.50;1719569;83;21060;-80
2022/12/29 12:47:31;;;;;;;16.40;13.68;;;;;;;3.92;74.55;100070.14;1721319;83;21044;-79
2022/12/29 12:50:15;;;;;;;15.20;11.65;;;;;;;3.93;74.45;100056.63;1701012;83;21080;-88
2022/12/29 12:53:17;;;;;;;16.60;12.07;;;;;;;3.95;74.45;100054.59;1727287;83;21203;-79
2022/12/29 12:56:12;;;;;;;15.35;11.15;;;;;;;3.95;74.49;100050.61;1709379;84;21026;-82
2022/12/29 12:59:02;;;;;;;15.05;10.45;;;;;;;3.99;74.34;100039.05;1709049;84;21760;-82
2022/12/29 13:01:41;;;;;;;17.10;12.25;;;;;;;4.01;74.22;100045.52;1757183;81;21090;-79
2022/12/29 13:04:51;;;;;;;15.95;12.20;;;;;;;3.99;74.15;100031.06;1728108;82;21396;-87
2022/12/29 13:07:26;;;;;;;23.92;12.03;;;;;;;3.98;74.19;100020.64;1708266;84;21760;-83
2022/12/29 13:10:46;;;;;;;18.27;13.40;;;;;;;3.94;74.12;100013.03;1707082;83;21485;-82
2022/12/29 13:13:30;;;;;;;18.30;11.80;;;;;;;3.92;74.17;100017.75;1706858;83;21649;-83
2022/12/29 13:16:27;;;;;;;19.00;12.80;;;;;;;3.88;74.38;100012.52;1682876;83;21079;-82
2022/12/29 13:19:02;;;;;;;15.72;12.05;;;;;;;3.87;74.43;100016.70;1758865;81;21064;-83
2022/12/29 13:21:43;;;;;;;20.08;13.22;;;;;;;3.86;74.59;100026.52;1761902;81;21488;-84
2022/12/29 13:24:23;;;;;;;21.87;13.88;;;;;;;3.82;74.58;100027.94;1739794;81;21286;-84
2022/12/29 13:26:57;;;;;;;18.98;14.60;;;;;;;3.82;74.84;100021.80;1732554;82;21039;-85
2022/12/29 13:29:46;;;;;;;14.28;11.80;;;;;;;3.82;74.92;100035.92;1732314;82;21039;-83
2022/12/29 13:32:30;;;;;;;23.57;13.48;;;;;;;3.84;74.98;100034.38;1749841;81;20963;-86
2022/12/29 13:35:11;;;;;;;15.20;11.78;;;;;;;3.85;75.06;100038.17;1761016;81;21901;-82
2022/12/29 13:37:46;;;;;;;20.23;14.93;;;;;;;3.89;74.96;100042.08;1729528;83;20995;-86
2022/12/29 13:40:16;;;;;;;21.70;13.78;;;;;;;3.92;75.07;100058.17;1705418;83;21054;-83
2022/12/29 13:42:43;;;;;;;21.60;15.03;;;;;;;3.97;74.96;100057.58;1729935;83;20979;-86
2022/12/29 13:45:24;;;;;;;19.37;13.85;;;;;;;3.97;74.82;100064.23;1708602;84;21093;-82
2022/12/29 13:48:16;;;;;;;20.75;14.68;;;;;;;3.98;74.75;100053.37;1729422;83;21574;-86
2022/12/29 13:50:46;;;;;;;19.70;15.15;;;;;;;3.96;74.59;100046.11;1728554;83;21034;-83
2022/12/29 13:53:27;;;;;;;21.65;13.58;;;;;;;3.92;74.62;100040.37;1724660;83;20987;-86
2022/12/29 13:56:14;;;;;;;20.05;14.68;;;;;;;3.93;74.77;100042.52;1727116;83;21016;-84
2022/12/29 13:58:50;;;;;;;21.07;14.45;;;;;;;3.92;74.73;100042.20;1726388;83;20991;-85
2022/12/29 14:01:36;;;;;;;21.05;14.55;;;;;;;3.92;74.74;100044.87;1715907;83;21179;-87
2022/12/29 14:04:07;;;;;;;18.77;11.83;;;;;;;3.91;74.63;100041.89;1722502;82;21016;-90
2022/12/29 14:06:40;;;;;;;18.77;12.55;;;;;;;3.88;74.70;100036.98;1726479;83;21579;-84
2022/12/29 14:09:31;;;;;;;19.45;12.50;;;;;;;3.89;74.72;100041.25;1725892;83;21007;-86
2022/12/29 14:11:58;;;;;;;19.35;12.75;;;;;;;3.88;74.69;100051.11;1725090;83;21493;-88
2022/12/29 14:14:29;;;;;;;16.77;12.82;;;;;;;3.89;74.68;100060.70;1705309;83;22259;-88
2022/12/29 14:17:11;;;;;;;17.95;12.98;;;;;;;3.88;74.67;100063.08;1681850;84;21640;-84
2022/12/29 14:19:43;;;;;;;18.62;14.07;;;;;;;3.89;74.78;100054.55;1669771;83;21584;-86
2022/12/29 14:22:10;;;;;;;;;;;;;;;3.89;74.86;100048.73;1704908;83;21010;-85
2022/12/29 14:24:45;;;;;;;15.20;12.40;;;;;;;3.89;74.82;100055.38;1710397;83;20161;-83
2022/12/29 14:27:17;;;;;;;20.32;14.63;;;;;;;3.88;74.80;100068.40;1710272;83;21630;-85
2022/12/29 14:29:51;;;;;;;19.70;12.68;;;;;;;3.86;74.85;100071.75;1710047;83;21045;-84
2022/12/29 14:32:29;;;;;;;17.17;13.10;;;;;;;3.87;74.92;100063.27;1710127;83;21106;-87
2022/12/29 14:35:00;;;;;;;19.23;12.75;;;;;;;3.87;74.99;100057.94;1709947;83;21058;-82
2022/12/29 14:37:32;;;;;;;16.82;12.90;;;;;;;3.87;74.92;100055.28;1710538;83;21070;-86
2022/12/29 14:40:26;;;;;;;19.42;13.28;;;;;;;3.86;74.91;100050.47;1685055;83;21143;-83
2022/12/29 14:42:54;;;;;;;19.55;12.23;;;;;;;3.83;74.98;100040.23;1681465;85;22348;-84
2022/12/29 14:45:33;;;;;;;22.13;14.70;;;;;;;3.80;75.06;100034.46;1681564;85;21269;-83
2022/12/29 14:47:59;;;;;;;18.00;14.35;;;;;;;3.78;75.18;100036.02;1683989;83;21565;-82
2022/12/29 14:50:42;;;;;;;18.02;12.85;;;;;;;3.77;75.24;100036.20;1700987;83;22273;-85
2022/12/29 14:53:42;;;;;;;16.87;13.53;;;;;;;3.75;75.27;100032.39;1709521;83;21147;-85
2022/12/29 14:56:11;;;;;;;19.50;13.68;;;;;;;3.75;75.40;100028.91;1701982;84;21961;-85
2022/12/29 14:58:51;;;;;;;21.55;13.50;;;;;;;3.75;75.47;100033.72;1701701;83;21040;-83
2022/12/29 15:01:42;;;;;;;14.80;11.63;;;;;;;3.78;75.49;100037.84;1696411;83;21544;-85
2022/12/29 15:04:25;;;;;;;21.50;16.12;;;;;;;3.79;75.41;100033.64;1674913;85;21538;-85
2022/12/29 15:06:51;;;;;;;20.40;12.35;;;;;;;3.80;75.48;100039.28;1682789;84;21534;-83
2022/12/29 15:09:26;;;;;;;15.90;11.63;;;;;;;3.80;75.33;100042.44;1695109;83;21692;-82
2022/12/29 15:12:19;;;;;;;20.65;13.83;;;;;;;3.75;75.23;100036.89;1655837;85;21042;-83
2022/12/29 15:14:57;;;;;;;17.75;13.20;;;;;;;3.74;75.29;100049.91;1673031;83;20967;-82
2022/12/29 15:17:36;;;;;;;16.23;12.03;;;;;;;3.73;75.49;100057.56;1702181;83;21055;-76
2022/12/29 15:20:29;;;;;;;23.27;12.82;;;;;;;3.70;75.44;100049.45;1670979;85;21163;-76
2022/12/29 15:23:03;;;;;;;;;;;;;;;3.69;75.62;100058.98;1672705;84;20999;-75
2022/12/29 15:25:30;;;;;;;;;;;;;;;3.66;75.69;100048.20;1674672;84;20146;-72
2022/12/29 15:28:05;;;;;;;18.98;13.78;;;;;;;3.68;75.75;100063.98;1698405;84;20448;-76
2022/12/29 15:30:32;;;;;;;19.12;14.10;;;;;;;3.67;75.78;100067.14;1701369;83;21027;-76
2022/12/29 15:32:58;;;;;;;25.97;13.80;;;;;;;3.69;75.76;100066.96;1694402;83;21561;-74
2022/12/29 15:35:34;;;;;;;20.45;14.13;;;;;;;3.71;75.75;100071.55;1680861;84;21559;-76
2022/12/29 15:38:03;;;;;;;18.80;13.75;;;;;;;3.74;75.67;100062.67;1725340;81;20987;-77
2022/12/29 15:40:31;;;;;;;23.45;14.40;;;;;;;3.80;75.59;100067.72;1729191;81;20994;-77
2022/12/29 15:43:16;;;;;;;20.52;14.93;;;;;;;3.80;75.42;100061.89;1729487;81;21073;-78
2022/12/29 15:45:42;;;;;;;20.23;13.30;;;;;;;3.83;75.40;100059.36;1729789;82;21799;-76
2022/12/29 15:48:21;;;;;;;15.72;11.85;;;;;;;3.80;75.10;100047.26;1695521;83;21067;-82
2022/12/29 15:50:47;;;;;;;20.00;13.32;;;;;;;3.75;75.33;100039.55;1683002;84;21077;-77
2022/12/29 15:53:24;;;;;;;21.25;15.00;;;;;;;3.72;75.43;100036.79;1704863;83;21598;-80
2022/12/29 15:55:50;;;;;;;16.90;14.00;;;;;;;3.69;75.55;100041.69;1714829;83;21135;-76
2022/12/29 15:58:30;;;;;;;25.37;17.40;;;;;;;3.64;75.72;100033.48;1676852;84;21281;-79
2022/12/29 16:01:00;;;;;;;20.57;14.50;;;;;;;3.62;75.82;100036.83;1674865;85;20998;-81
2022/12/29 16:03:30;;;;;;;23.85;15.78;;;;;;;3.58;75.97;100031.59;1679142;84;21058;-80
2022/12/29 16:06:18;;;;;;;15.98;12.47;;;;;;;3.55;76.11;100026.68;1686701;84;20941;-81
2022/12/29 16:08:47;;;;;;;21.80;15.32;;;;;;;3.50;76.34;100017.96;1695084;83;21034;-80
2022/12/29 16:11:26;;;;;;;21.10;15.32;;;;;;;3.47;76.44;100019.66;1667698;83;21115;-80
2022/12/29 16:13:54;;;;;;;24.20;16.45;;;;;;;3.37;76.82;100015.20;1717353;83;21062;-81
2022/12/29 16:16:29;;;;;;;23.05;16.48;;;;;;;3.37;76.82;100015.20;1725519;82;20983;-83
2022/12/29 16:18:57;;;;;;;21.17;16.07;;;;;;;3.37;77.11;100017.36;1697438;84;20995;-79
2022/12/29 16:21:27;;;;;;;26.95;17.30;;;;;;;3.33;77.12;100013.95;1699786;84;21090;-81
2022/12/29 16:23:55;;;;;;;24.25;17.77;;;;;;;3.32;77.30;100013.64;1672425;84;21203;-85
2022/12/29 16:26:22;;;;;;;24.43;18.23;;;;;;;3.30;77.43;100003.72;1719496;83;21027;-76
2022/12/29 16:28:55;;;;;;;25.37;19.05;;;;;;;3.28;77.70;99997.77;1728757;82;20940;-74
2022/12/29 16:31:42;;;;;;;27.93;18.37;;;;;;;3.28;77.70;99997.77;1699544;84;28754;-84
2022/12/29 16:34:32;;;;;;;26.10;18.23;;;;;;;3.28;77.75;100003.09;1699921;83;20932;-79
2022/12/29 16:37:21;;;;;;;22.62;16.12;;;;;;;3.28;77.82;100007.89;1690853;83;21565;-81
2022/12/29 16:39:47;;;;;;;28.07;17.57;;;;;;;3.30;77.83;100002.39;1728766;83;20999;-78
2022/12/29 16:42:35;;;;;;;28.07;18.23;;;;;;;3.34;77.80;100000.98;1691385;84;21080;-77
2022/12/29 16:45:22;;;;;;;30.37;19.45;;;;;;;3.30;77.73;99997.91;1709808;83;21536;-78
2022/12/29 16:48:18;;;;;;;26.02;16.97;;;;;;;3.31;77.80;100002.72;1669839;84;21136;-75
2022/12/29 16:50:45;;;;;;;26.12;18.55;;;;;;;3.31;77.80;100002.72;1698790;83;21123;-75
2022/12/29 16:53:31;;;;;;;25.20;20.17;;;;;;;3.27;77.73;99986.82;1706794;83;21062;-75
2022/12/29 16:56:03;;;;;;;27.75;19.42;;;;;;;3.29;77.83;99996.26;1699912;82;21155;-74
2022/12/29 16:58:31;;;;;;;28.73;19.70;;;;;;;3.25;77.88;99998.99;1711173;83;21063;-73
2022/12/29 17:01:00;;;;;;;27.98;20.32;;;;;;;3.22;78.07;99983.92;1711324;83;21277;-85
2022/12/29 17:03:37;;;;;;;23.32;19.70;;;;;;;3.20;78.03;99985.97;1729151;83;20976;-86